Time;durP1;ratioP1;P1;durP2;ratioP2;P2;SDS_P1;SDS_P2;PMS_P1;PMS_P2;Temp;Humidity;BMP_temperature;BMP_pressure;BME280_temperature;BME280_humidity;BME280_pressure;Samples;Min_cycle;Max_cycle;Signal;HPM_P1;HPM_P2
2021/09/30 00:01:19;;;;;;;2.70;0.80;;;;;;;11.11;69.40;100899.16;1087767;54;20034;-80
2021/09/30 00:02:38;;;;;;;2.50;0.80;;;;;;;11.06;69.73;100902.22;1087941;54;20034;-81
2021/09/30 00:04:09;;;;;;;3.25;0.70;;;;;;;11.24;68.98;100904.34;1090496;39;20815;-82
2021/09/30 00:05:33;;;;;;;4.60;1.20;;;;;;;11.12;69.31;100905.38;1092197;39;20660;-81
2021/09/30 00:06:47;;;;;;;4.30;0.90;;;;;;;11.06;69.71;100918.25;1088590;39;20560;-83
2021/09/30 00:08:01;;;;;;;2.42;0.80;;;;;;;11.00;69.82;100907.25;1088134;54;20038;-80
2021/09/30 00:09:17;;;;;;;4.40;1.00;;;;;;;11.08;69.59;100910.97;1088426;46;20022;-80
2021/09/30 00:11:06;;;;;;;3.50;0.80;;;;;;;11.03;69.73;100913.19;1088462;46;20110;-81
2021/09/30 00:18:27;;;;;;;2.42;0.65;;;;;;;10.85;70.26;100915.53;1088145;54;20026;-80
2021/09/30 00:33:35;;;;;;;2.72;0.70;;;;;;;11.09;69.75;100933.25;1087825;54;20793;-81
2021/09/30 00:34:49;;;;;;;4.95;1.00;;;;;;;11.12;69.42;100934.81;1087932;54;20035;-81
2021/09/30 00:36:04;;;;;;;2.95;0.70;;;;;;;11.08;69.83;100932.38;1087949;54;20031;-81
2021/09/30 00:40:02;;;;;;;3.95;0.90;;;;;;;10.75;70.36;100931.50;1087779;54;20030;-81
2021/09/30 00:45:23;;;;;;;4.93;1.88;;;;;;;10.76;70.56;100924.31;1087890;54;20104;-80
2021/09/30 00:46:26;;;;;;;3.70;0.82;;;;;;;10.65;71.13;100932.34;1088148;54;20057;-80
2021/09/30 00:47:45;;;;;;;3.08;0.90;;;;;;;10.69;70.89;100934.66;1088110;54;20090;-81
2021/09/30 00:50:21;;;;;;;3.95;1.27;;;;;;;10.70;70.63;100936.34;1088002;54;20034;-80
2021/09/30 00:51:29;;;;;;;3.72;0.77;;;;;;;10.70;70.78;100932.84;1088059;54;20057;-80
2021/09/30 00:52:40;;;;;;;5.13;0.80;;;;;;;10.67;70.83;100933.94;1088148;54;20019;-81
2021/09/30 00:55:22;;;;;;;4.18;1.05;;;;;;;10.77;70.40;100939.38;1087837;54;20786;-81
2021/09/30 01:18:42;;;;;;;2.33;0.70;;;;;;;10.43;71.49;100953.63;1088086;54;20035;-80
2021/09/30 02:18:58;;;;;;;5.43;0.80;;;;;;;10.58;70.48;100988.16;1087519;54;20041;-81
2021/09/30 02:20:15;;;;;;;3.65;1.15;;;;;;;10.48;70.89;100997.88;1087797;54;20018;-80
2021/09/30 02:22:54;;;;;;;5.38;1.00;;;;;;;10.47;71.31;100988.16;1087593;54;20059;-81
2021/09/30 02:31:08;;;;;;;2.78;0.75;;;;;;;10.58;70.62;100996.19;1087603;54;20094;-81
2021/09/30 02:58:32;;;;;;;2.97;0.80;;;;;;;10.34;70.92;100997.09;1087958;54;20034;-81
2021/09/30 02:59:35;;;;;;;5.10;0.93;;;;;;;10.34;70.61;101002.44;1087855;54;20087;-80
2021/09/30 03:00:43;;;;;;;3.95;0.95;;;;;;;10.28;71.01;101001.09;1087974;54;20627;-80
2021/09/30 03:01:47;;;;;;;5.05;1.15;;;;;;;10.39;70.88;101002.94;1088356;39;20583;-80
2021/09/30 03:02:56;;;;;;;3.78;1.50;;;;;;;10.32;70.88;101007.03;1087954;54;20038;-81
2021/09/30 03:03:59;;;;;;;3.00;1.00;;;;;;;10.31;70.95;101005.34;1088093;54;20035;-80
2021/09/30 03:05:04;;;;;;;3.25;1.02;;;;;;;10.27;71.19;101006.56;1087899;54;20077;-80
2021/09/30 03:06:07;;;;;;;2.72;0.98;;;;;;;10.26;71.50;101002.19;1087875;54;20058;-81
2021/09/30 03:07:13;;;;;;;4.03;1.20;;;;;;;10.40;70.95;100999.31;1087944;54;20014;-81
2021/09/30 03:08:15;;;;;;;2.38;1.05;;;;;;;10.51;70.52;101000.28;1087887;54;20054;-81
2021/09/30 03:09:21;;;;;;;4.88;1.25;;;;;;;10.55;70.53;101007.09;1087859;54;20072;-82
2021/09/30 03:10:24;;;;;;;3.33;1.00;;;;;;;10.39;70.73;101002.94;1087940;54;20038;-80
2021/09/30 03:11:33;;;;;;;5.72;1.40;;;;;;;10.28;71.31;101009.13;1087861;54;20026;-81
2021/09/30 03:12:37;;;;;;;4.25;1.17;;;;;;;10.37;71.24;100996.91;1087912;54;20681;-80
2021/09/30 03:13:45;;;;;;;5.00;1.38;;;;;;;10.45;70.64;100993.59;1088237;54;20025;-82
2021/09/30 03:15:01;;;;;;;3.45;1.17;;;;;;;10.48;70.85;100996.03;1088182;54;20022;-81
2021/09/30 03:16:13;;;;;;;4.90;1.23;;;;;;;10.51;70.80;100998.47;1088292;54;20042;-81
2021/09/30 03:17:20;;;;;;;3.42;1.27;;;;;;;10.56;70.49;101000.78;1088260;54;20026;-81
2021/09/30 03:18:30;;;;;;;3.10;1.20;;;;;;;10.57;70.16;101002.50;1088239;54;20729;-81
2021/09/30 03:19:50;;;;;;;3.13;1.10;;;;;;;10.55;70.46;100999.94;1088357;54;20046;-81
2021/09/30 03:22:15;;;;;;;3.33;1.00;;;;;;;10.48;70.96;101008.56;1088212;54;20059;-81
2021/09/30 03:23:24;;;;;;;4.45;1.00;;;;;;;10.48;70.64;101009.41;1088227;54;20049;-80
2021/09/30 03:24:26;;;;;;;3.30;0.95;;;;;;;10.48;70.65;101005.91;1088135;54;20034;-80
2021/09/30 03:25:37;;;;;;;3.75;1.05;;;;;;;10.49;70.51;101007.56;1088219;54;20761;-80
2021/09/30 03:26:44;;;;;;;4.53;1.30;;;;;;;10.49;70.94;101013.78;1088196;54;20038;-80
2021/09/30 03:27:46;;;;;;;3.22;1.00;;;;;;;10.49;70.75;101010.25;1088385;46;20039;-80
2021/09/30 03:28:53;;;;;;;3.20;0.98;;;;;;;10.49;70.59;101013.78;1088248;54;20038;-81
2021/09/30 03:29:55;;;;;;;4.30;1.00;;;;;;;10.54;70.56;101013.41;1088182;54;20058;-81
2021/09/30 03:31:03;;;;;;;2.00;0.73;;;;;;;10.53;70.50;101006.38;1088109;54;20042;-80
2021/09/30 03:32:12;;;;;;;3.58;1.00;;;;;;;10.54;70.31;101010.75;1088166;54;20090;-81
2021/09/30 03:33:15;;;;;;;3.58;0.80;;;;;;;10.55;70.45;101017.81;1088261;54;20023;-80
2021/09/30 03:34:28;;;;;;;2.47;0.77;;;;;;;10.57;70.59;101013.19;1088255;54;20034;-80
2021/09/30 03:35:38;;;;;;;2.72;0.60;;;;;;;10.60;70.50;101007.59;1088068;54;20037;-81
2021/09/30 03:36:43;;;;;;;3.05;1.10;;;;;;;10.61;70.49;101009.28;1088156;54;20053;-80
2021/09/30 03:37:45;;;;;;;2.50;0.82;;;;;;;10.59;70.49;101011.22;1088133;54;20745;-81
2021/09/30 03:38:49;;;;;;;2.70;0.88;;;;;;;10.65;70.16;101015.25;1088678;46;20031;-81
2021/09/30 03:39:51;;;;;;;2.65;0.90;;;;;;;10.66;70.54;101015.13;1088241;54;20022;-81
2021/09/30 03:40:56;;;;;;;3.38;0.90;;;;;;;10.63;70.23;101017.22;1088263;54;20090;-81
2021/09/30 03:41:58;;;;;;;2.80;1.00;;;;;;;10.64;70.16;101018.88;1088480;46;20113;-80
2021/09/30 03:43:03;;;;;;;2.55;0.73;;;;;;;10.64;70.50;101014.41;1088121;54;20041;-80
2021/09/30 03:44:05;;;;;;;2.92;0.80;;;;;;;10.65;70.42;101020.59;1087919;54;20034;-81
2021/09/30 03:45:12;;;;;;;3.30;0.80;;;;;;;10.61;70.39;101015.50;1088008;54;20041;-81
2021/09/30 03:46:14;;;;;;;3.13;0.80;;;;;;;10.59;70.43;101013.91;1088156;54;20019;-80
2021/09/30 03:47:37;;;;;;;3.53;1.00;;;;;;;10.55;70.45;101013.28;1088207;54;20034;-81
2021/09/30 03:48:53;;;;;;;3.13;0.90;;;;;;;10.53;70.76;101011.72;1088253;54;20041;-80
2021/09/30 03:51:57;;;;;;;4.95;1.40;;;;;;;10.41;70.72;101014.38;1088035;54;20030;-81
2021/09/30 03:55:58;;;;;;;2.78;0.90;;;;;;;10.35;71.11;101027.34;1087608;54;20035;-80
2021/09/30 04:14:43;;;;;;;2.83;1.00;;;;;;;10.14;71.52;101041.41;1087752;54;21037;-81
2021/09/30 04:16:36;;;;;;;3.65;0.90;;;;;;;9.96;72.25;101043.66;1088112;54;20305;-81
2021/09/30 04:18:27;;;;;;;3.95;1.30;;;;;;;9.87;72.84;101047.03;1087960;54;20034;-80
2021/09/30 04:21:11;;;;;;;;;;;;;;;;;;;;;
2021/09/30 04:22:29;;;;;;;3.05;0.80;;;;;;;9.87;72.18;101037.16;1088039;54;20098;-80
2021/09/30 04:23:39;;;;;;;3.55;1.10;;;;;;;9.92;72.07;101044.88;1088091;54;20035;-82
2021/09/30 04:24:55;;;;;;;2.95;0.85;;;;;;;10.01;71.89;101044.16;1087864;54;20081;-81
2021/09/30 04:25:58;;;;;;;2.85;1.08;;;;;;;9.99;71.73;101041.59;1088201;46;20996;-79
2021/09/30 04:30:57;;;;;;;3.08;1.00;;;;;;;9.91;72.16;101060.03;1087823;54;20030;-81
2021/09/30 04:32:12;;;;;;;4.13;1.20;;;;;;;9.92;71.93;101050.22;1087856;54;20026;-81
2021/09/30 04:33:24;;;;;;;2.08;0.70;;;;;;;9.96;72.10;101057.88;1088055;54;20046;-81
2021/09/30 04:34:37;;;;;;;2.88;0.90;;;;;;;10.01;71.75;101052.19;1088801;46;20057;-81
2021/09/30 04:35:46;;;;;;;4.82;1.20;;;;;;;9.95;72.07;101058.84;1087891;54;20122;-82
2021/09/30 04:36:54;;;;;;;5.00;1.40;;;;;;;9.84;72.21;101056.13;1087870;54;20042;-81
2021/09/30 04:41:32;;;;;;;3.65;1.48;;;;;;;9.90;72.37;101061.00;1087497;54;20041;-78
2021/09/30 04:42:35;;;;;;;5.38;1.73;;;;;;;9.89;72.26;101061.13;1092252;39;20664;-80
2021/09/30 04:43:40;;;;;;;4.30;1.30;;;;;;;9.93;72.33;101065.25;1087713;54;20057;-80
2021/09/30 04:44:45;;;;;;;3.42;1.30;;;;;;;10.01;71.97;101060.19;1088057;54;20034;-80
2021/09/30 04:45:52;;;;;;;4.80;1.70;;;;;;;10.04;72.01;101051.94;1089069;46;20034;-80
2021/09/30 04:46:57;;;;;;;4.57;1.17;;;;;;;10.09;71.94;101052.44;1087858;54;20035;-80
2021/09/30 04:48:00;;;;;;;2.95;1.10;;;;;;;10.11;71.83;101055.84;1088324;46;20037;-80
2021/09/30 04:49:05;;;;;;;4.40;1.88;;;;;;;10.15;71.47;101056.47;1088076;54;20019;-80
2021/09/30 04:52:17;;;;;;;2.35;0.90;;;;;;;10.17;71.48;101059.03;1087817;54;20054;-81
2021/09/30 04:54:56;;;;;;;2.70;0.90;;;;;;;10.15;71.61;101054.63;1087732;54;20050;-79
2021/09/30 05:01:58;;;;;;;3.42;1.33;;;;;;;10.00;71.90;101063.84;1087544;54;20023;-80
2021/09/30 05:03:00;;;;;;;3.42;1.23;;;;;;;10.04;71.94;101059.94;1087590;54;20019;-79
2021/09/30 05:04:06;;;;;;;4.30;1.73;;;;;;;10.04;71.78;101061.78;1087976;54;20041;-81
2021/09/30 05:05:12;;;;;;;3.65;1.58;;;;;;;10.08;71.94;101061.44;1087983;54;20038;-81
2021/09/30 05:06:16;;;;;;;4.20;1.85;;;;;;;10.07;71.82;101059.72;1087946;54;20702;-80
2021/09/30 05:07:19;;;;;;;5.70;1.63;;;;;;;10.02;71.98;101066.38;1088205;46;20054;-80
2021/09/30 05:08:24;;;;;;;5.03;1.90;;;;;;;10.02;72.18;101063.72;1087865;54;20073;-80
2021/09/30 05:09:31;;;;;;;3.95;1.98;;;;;;;9.87;72.50;101060.38;1087924;54;20113;-80
2021/09/30 05:10:34;;;;;;;5.05;2.15;;;;;;;9.83;72.64;101071.28;1088034;54;20042;-80
2021/09/30 05:11:46;;;;;;;5.65;2.20;;;;;;;9.76;73.03;101071.88;1087961;54;20053;-80
2021/09/30 05:12:48;;;;;;;4.95;2.33;;;;;;;9.67;72.99;101070.72;1087863;54;20041;-79
2021/09/30 05:13:57;;;;;;;6.43;3.10;;;;;;;9.57;73.32;101067.91;1087914;54;20049;-80
2021/09/30 05:14:59;;;;;;;5.50;2.90;;;;;;;9.57;73.16;101067.03;1087746;54;20041;-80
2021/09/30 05:16:03;;;;;;;5.65;2.55;;;;;;;9.49;73.44;101068.44;1087909;54;20041;-81
2021/09/30 05:17:08;;;;;;;8.27;2.47;;;;;;;9.40;74.10;101070.97;1087883;39;20622;-80
2021/09/30 05:18:13;;;;;;;4.55;2.10;;;;;;;9.38;74.00;101071.06;1087850;54;20042;-81
2021/09/30 05:19:17;;;;;;;4.95;1.90;;;;;;;9.35;73.86;101073.97;1093773;39;20540;-80
2021/09/30 05:20:25;;;;;;;6.05;2.70;;;;;;;9.30;74.18;101068.09;1087918;54;20030;-81
2021/09/30 05:21:30;;;;;;;7.60;2.30;;;;;;;9.18;74.57;101073.34;1087864;54;20049;-81
2021/09/30 05:24:08;;;;;;;7.05;2.70;;;;;;;9.11;75.18;101079.25;1087915;54;20034;-80
2021/09/30 05:25:11;;;;;;;5.82;2.00;;;;;;;9.07;75.10;101089.25;1087924;54;20037;-80
2021/09/30 05:26:43;;;;;;;5.22;2.10;;;;;;;9.02;75.58;101088.75;1088339;46;20042;-81
2021/09/30 05:29:29;;;;;;;6.78;2.08;;;;;;;8.92;75.54;101090.38;1087463;54;20046;-78
2021/09/30 05:30:31;;;;;;;5.20;1.90;;;;;;;8.90;75.79;101090.47;1087334;54;20091;-79
2021/09/30 05:31:37;;;;;;;4.65;1.80;;;;;;;8.88;75.91;101085.25;1087521;54;20042;-81
2021/09/30 05:32:41;;;;;;;5.35;2.00;;;;;;;8.92;75.85;101093.03;1087569;54;20023;-82
2021/09/30 05:33:47;;;;;;;4.53;1.65;;;;;;;9.13;75.16;101088.84;1087909;54;20041;-80
2021/09/30 05:34:49;;;;;;;5.28;1.92;;;;;;;9.25;74.67;101088.94;1087911;54;20049;-82
2021/09/30 05:35:53;;;;;;;5.07;1.83;;;;;;;9.35;74.26;101092.63;1087629;54;20030;-81
2021/09/30 05:36:55;;;;;;;3.67;1.50;;;;;;;9.37;74.20;101090.69;1087835;54;20094;-79
2021/09/30 05:38:00;;;;;;;3.10;1.38;;;;;;;9.44;73.98;101097.31;1088228;46;20038;-81
2021/09/30 05:39:05;;;;;;;4.65;1.67;;;;;;;9.49;73.79;101100.47;1087508;54;20035;-78
2021/09/30 05:40:14;;;;;;;3.97;1.40;;;;;;;9.48;73.83;101104.13;1087443;54;20042;-78
2021/09/30 05:41:18;;;;;;;3.40;1.65;;;;;;;9.37;74.22;101101.38;1089629;39;20590;-79
2021/09/30 05:42:19;;;;;;;3.70;1.45;;;;;;;9.26;74.52;101101.31;1087771;54;20018;-80
2021/09/30 05:43:27;;;;;;;4.28;1.50;;;;;;;9.28;74.43;101099.38;1087913;54;20038;-79
2021/09/30 05:44:32;;;;;;;5.18;1.60;;;;;;;9.36;74.31;101102.31;1087395;54;20749;-80
2021/09/30 05:45:41;;;;;;;4.50;1.52;;;;;;;9.32;74.21;101106.19;1086160;54;20043;-80
2021/09/30 05:46:47;;;;;;;4.47;2.00;;;;;;;9.19;74.70;101109.75;1090554;39;20513;-82
2021/09/30 05:51:19;;;;;;;6.13;1.70;;;;;;;9.09;74.86;101111.34;1087174;54;20041;-80
2021/09/30 05:52:21;;;;;;;4.75;1.50;;;;;;;9.13;74.85;101106.66;1087645;54;20054;-81
2021/09/30 05:53:25;;;;;;;5.78;2.80;;;;;;;9.03;74.95;101106.47;1087930;54;20042;-80
2021/09/30 05:54:28;;;;;;;6.53;2.40;;;;;;;9.11;74.80;101109.44;1087795;54;20030;-80
2021/09/30 05:55:32;;;;;;;4.75;2.08;;;;;;;9.21;74.51;101114.94;1087774;54;20034;-79
2021/09/30 05:56:36;;;;;;;4.45;1.70;;;;;;;9.28;74.14;101110.03;1087572;54;20701;-82
2021/09/30 05:57:38;;;;;;;4.25;1.63;;;;;;;9.19;74.48;101112.41;1087513;54;20042;-80
2021/09/30 05:58:42;;;;;;;4.40;1.60;;;;;;;9.15;74.55;101116.28;1087530;54;20050;-80
2021/09/30 05:59:43;;;;;;;5.88;1.73;;;;;;;9.24;74.20;101116.56;1087372;54;20049;-79
2021/09/30 06:01:00;;;;;;;3.50;1.58;;;;;;;9.41;73.97;101115.34;1087444;54;20034;-80
2021/09/30 06:11:02;;;;;;;3.58;1.10;;;;;;;9.61;73.32;101106.72;1086931;54;20034;-76
2021/09/30 06:12:11;;;;;;;4.45;1.15;;;;;;;9.47;73.53;101110.41;1087170;54;20035;-82
2021/09/30 06:13:16;;;;;;;5.18;1.52;;;;;;;9.42;73.51;101120.59;1087133;54;20049;-80
2021/09/30 06:14:23;;;;;;;5.63;1.70;;;;;;;9.30;73.90;101111.66;1086572;54;20045;-80
2021/09/30 06:15:40;;;;;;;7.05;1.60;;;;;;;9.19;74.36;101115.06;1087220;54;20030;-81
2021/09/30 06:16:45;;;;;;;5.35;1.42;;;;;;;9.27;74.05;101113.66;1087283;54;20034;-80
2021/09/30 06:17:51;;;;;;;7.63;1.73;;;;;;;9.27;74.28;101116.34;1087100;54;20050;-81
2021/09/30 06:18:53;;;;;;;5.07;1.10;;;;;;;9.28;74.03;101115.38;1087356;54;20023;-80
2021/09/30 06:19:57;;;;;;;4.82;1.50;;;;;;;9.18;74.17;101121.38;1087631;39;20477;-81
2021/09/30 06:21:01;;;;;;;6.50;1.50;;;;;;;9.29;74.15;101119.75;1087087;54;20034;-80
2021/09/30 06:22:05;;;;;;;3.90;1.17;;;;;;;9.45;73.75;101123.00;1086818;46;20033;-79
2021/09/30 06:23:12;;;;;;;5.03;1.38;;;;;;;9.58;73.21;101122.13;1086288;54;20045;-80
2021/09/30 06:24:13;;;;;;;3.30;1.00;;;;;;;9.61;73.28;101129.91;1086179;54;20761;-81
2021/09/30 06:25:24;;;;;;;4.38;1.45;;;;;;;9.58;73.29;101128.34;1087116;54;20033;-79
2021/09/30 06:26:27;;;;;;;7.65;3.00;;;;;;;9.70;73.06;101131.91;1086851;54;20046;-80
2021/09/30 06:27:32;;;;;;;5.25;2.75;;;;;;;9.77;72.93;101125.16;1086800;54;20034;-77
2021/09/30 06:28:36;;;;;;;5.97;2.30;;;;;;;9.82;72.68;101130.16;1086974;54;20030;-77
2021/09/30 06:29:38;;;;;;;5.60;1.95;;;;;;;9.86;72.50;101131.66;1086790;54;20039;-76
2021/09/30 06:30:42;;;;;;;4.35;1.52;;;;;;;9.94;72.13;101133.72;1088418;39;20725;-77
2021/09/30 06:31:43;;;;;;;4.55;1.45;;;;;;;9.98;72.17;101128.03;1086848;54;20030;-77
2021/09/30 06:32:49;;;;;;;3.38;1.58;;;;;;;9.97;71.96;101129.00;1086818;54;20034;-77
2021/09/30 06:33:53;;;;;;;3.00;1.30;;;;;;;10.02;72.15;101136.69;1086980;54;20034;-76
2021/09/30 06:35:02;;;;;;;3.72;1.13;;;;;;;10.03;71.75;101130.38;1087305;54;20066;-80
2021/09/30 06:36:07;;;;;;;2.83;0.95;;;;;;;10.10;71.81;101126.28;1086702;54;20090;-79
2021/09/30 06:37:08;;;;;;;3.08;0.98;;;;;;;10.14;71.85;101126.91;1086546;54;20066;-79
2021/09/30 06:38:16;;;;;;;3.03;1.10;;;;;;;10.16;71.86;101124.94;1086381;54;20632;-79
2021/09/30 06:39:18;;;;;;;3.58;1.30;;;;;;;10.20;71.89;101129.13;1086798;54;20607;-78
2021/09/30 06:40:24;;;;;;;3.25;1.40;;;;;;;10.14;71.88;101127.75;1086850;54;20049;-80
2021/09/30 06:41:25;;;;;;;5.57;2.33;;;;;;;10.04;71.95;101123.22;1086844;54;20039;-82
2021/09/30 06:42:30;;;;;;;5.57;2.33;;;;;;;10.02;72.26;101130.50;1086677;54;20041;-79
2021/09/30 06:43:34;;;;;;;12.63;2.25;;;;;;;10.08;72.15;101124.69;1086785;54;20082;-80
2021/09/30 06:44:35;;;;;;;6.45;1.90;;;;;;;10.10;72.16;101123.63;1086798;54;20046;-79
2021/09/30 06:45:39;;;;;;;5.63;2.40;;;;;;;10.13;72.01;101127.88;1087013;54;20039;-80
2021/09/30 06:46:41;;;;;;;8.30;2.17;;;;;;;10.25;71.94;101126.09;1086914;54;20049;-81
2021/09/30 06:47:45;;;;;;;5.65;2.03;;;;;;;10.30;71.79;101129.25;1087026;54;20164;-79
2021/09/30 06:48:47;;;;;;;6.05;2.60;;;;;;;10.29;71.92;101127.56;1087149;54;20046;-80
2021/09/30 06:49:51;;;;;;;6.53;2.50;;;;;;;10.30;71.78;101126.56;1086586;54;20844;-79
2021/09/30 06:50:55;;;;;;;4.78;1.75;;;;;;;10.34;71.42;101129.91;1088853;39;20488;-79
2021/09/30 06:51:57;;;;;;;5.03;2.08;;;;;;;10.36;71.58;101136.81;1087084;39;20754;-79
2021/09/30 06:53:03;;;;;;;5.82;1.92;;;;;;;10.20;71.82;101138.97;1087014;54;20046;-79
2021/09/30 06:54:10;;;;;;;5.43;1.35;;;;;;;10.35;71.22;101135.13;1087364;54;20102;-78
2021/09/30 06:55:13;;;;;;;3.63;1.42;;;;;;;10.44;71.15;101123.75;1087449;54;20042;-81
2021/09/30 06:56:19;;;;;;;2.70;0.90;;;;;;;10.47;70.91;101124.50;1087381;54;20019;-79
2021/09/30 06:57:27;;;;;;;4.30;1.20;;;;;;;10.52;70.76;101128.53;1087570;46;20617;-79
2021/09/30 06:58:31;;;;;;;3.58;1.15;;;;;;;10.53;70.74;101127.53;1087737;46;20043;-78
2021/09/30 06:59:34;;;;;;;4.78;0.93;;;;;;;10.53;70.55;101124.84;1086984;54;20042;-78
2021/09/30 07:00:39;;;;;;;5.63;1.30;;;;;;;10.57;70.39;101130.84;1087213;54;20042;-79
2021/09/30 07:01:41;;;;;;;4.50;1.35;;;;;;;10.57;70.35;101126.31;1086962;54;20053;-80
2021/09/30 07:02:45;;;;;;;3.15;1.10;;;;;;;10.63;70.30;101132.19;1087207;54;20038;-80
2021/09/30 07:03:49;;;;;;;4.57;1.23;;;;;;;10.69;70.11;101127.19;1087601;54;20045;-79
2021/09/30 07:04:53;;;;;;;3.10;1.10;;;;;;;10.68;70.24;101133.50;1087003;54;20038;-79
2021/09/30 07:05:55;;;;;;;3.78;1.27;;;;;;;10.73;69.97;101131.34;1086990;54;20038;-80
2021/09/30 07:06:59;;;;;;;4.20;1.10;;;;;;;10.76;69.91;101131.13;1088105;31;20557;-79
2021/09/30 07:08:06;;;;;;;4.45;1.00;;;;;;;10.82;69.68;101126.25;1087516;54;20646;-77
2021/09/30 07:09:10;;;;;;;5.78;1.15;;;;;;;10.58;70.30;101133.38;1087056;54;20035;-80
2021/09/30 07:10:14;;;;;;;5.13;1.25;;;;;;;10.75;70.09;101134.75;1087512;54;20065;-80
2021/09/30 07:11:18;;;;;;;3.63;1.08;;;;;;;10.83;69.91;101131.47;1087474;54;20066;-81
2021/09/30 07:12:19;;;;;;;4.47;1.10;;;;;;;10.89;69.55;101132.81;1086596;54;20077;-79
2021/09/30 07:13:25;;;;;;;6.22;1.52;;;;;;;10.89;69.58;101143.50;1086371;54;20631;-80
2021/09/30 07:14:29;;;;;;;3.95;1.10;;;;;;;10.95;69.61;101140.38;1086901;46;20057;-80
2021/09/30 07:15:33;;;;;;;4.43;1.30;;;;;;;10.80;69.93;101136.22;1086381;54;20050;-78
2021/09/30 07:16:37;;;;;;;6.72;1.83;;;;;;;10.66;70.35;101139.97;1086905;54;20034;-78
2021/09/30 07:17:39;;;;;;;4.60;1.52;;;;;;;10.58;70.40;101137.91;1087168;54;20026;-79
2021/09/30 07:18:43;;;;;;;4.35;1.55;;;;;;;10.46;71.00;101142.34;1086750;54;20057;-79
2021/09/30 07:19:47;;;;;;;6.65;1.20;;;;;;;10.58;70.67;101153.94;1086844;54;20077;-79
2021/09/30 07:20:57;;;;;;;5.03;1.50;;;;;;;10.79;70.29;101145.19;1089845;46;20041;-81
2021/09/30 07:21:58;;;;;;;4.47;1.45;;;;;;;10.64;70.38;101140.09;1087085;54;20073;-78
2021/09/30 07:23:03;;;;;;;6.20;1.55;;;;;;;10.66;70.77;101148.84;1087599;54;20037;-78
2021/09/30 07:24:08;;;;;;;6.88;1.70;;;;;;;10.55;70.83;101146.13;1087692;54;20034;-77
2021/09/30 07:25:16;;;;;;;6.72;1.67;;;;;;;10.54;71.14;101152.44;1087478;54;20061;-77
2021/09/30 07:26:20;;;;;;;4.53;1.20;;;;;;;10.49;71.01;101147.47;1087595;54;20030;-77
2021/09/30 07:27:21;;;;;;;5.53;1.30;;;;;;;10.47;71.00;101145.88;1087488;54;20038;-77
2021/09/30 07:28:27;;;;;;;4.47;1.30;;;;;;;10.50;71.15;101153.66;1089588;39;20660;-77
2021/09/30 07:29:29;;;;;;;4.18;1.40;;;;;;;10.58;71.19;101151.25;1087570;54;20031;-77
2021/09/30 07:30:33;;;;;;;3.92;1.35;;;;;;;10.60;71.18;101155.53;1087480;54;20039;-76
2021/09/30 07:31:42;;;;;;;3.88;1.25;;;;;;;10.77;70.80;101148.00;1087472;54;20030;-77
2021/09/30 07:32:47;;;;;;;3.45;1.20;;;;;;;10.95;70.08;101145.72;1087969;54;20041;-78
2021/09/30 07:33:48;;;;;;;4.53;1.40;;;;;;;11.00;69.90;101148.03;1087865;54;20034;-80
2021/09/30 07:34:53;;;;;;;3.72;1.00;;;;;;;11.13;69.91;101158.63;1086607;54;20042;-79
2021/09/30 07:35:57;;;;;;;3.60;1.00;;;;;;;11.19;69.22;101150.94;1086526;54;20682;-78
2021/09/30 07:36:59;;;;;;;5.28;1.67;;;;;;;11.11;69.17;101150.69;1087740;54;20038;-76
2021/09/30 07:38:04;;;;;;;5.28;1.83;;;;;;;11.03;69.48;101153.13;1087594;54;20041;-77
2021/09/30 07:39:08;;;;;;;5.30;1.40;;;;;;;11.02;69.50;101149.63;1087703;54;20039;-77
2021/09/30 07:40:16;;;;;;;4.45;1.50;;;;;;;11.16;68.95;101156.56;1087492;54;20034;-77
2021/09/30 07:41:18;;;;;;;6.82;1.40;;;;;;;11.29;68.74;101147.56;1087885;46;20082;-77
2021/09/30 07:42:24;;;;;;;5.28;1.40;;;;;;;11.27;68.79;101150.34;1088648;46;20095;-77
2021/09/30 07:43:28;;;;;;;3.55;1.40;;;;;;;11.37;68.54;101153.97;1087528;54;20070;-77
2021/09/30 07:44:33;;;;;;;7.10;1.55;;;;;;;11.30;68.66;101144.75;1087397;54;20023;-77
2021/09/30 07:45:35;;;;;;;4.18;1.30;;;;;;;11.21;68.68;101145.47;1087485;54;20034;-79
2021/09/30 07:46:41;;;;;;;4.15;1.25;;;;;;;11.40;68.16;101144.84;1087495;54;20309;-77
2021/09/30 07:47:45;;;;;;;3.75;1.10;;;;;;;11.54;67.77;101147.28;1087417;54;20034;-78
2021/09/30 07:48:49;;;;;;;6.35;1.27;;;;;;;11.45;68.05;101147.16;1087496;54;20047;-77
2021/09/30 07:49:51;;;;;;;4.47;1.15;;;;;;;11.36;67.95;101138.06;1087384;54;20044;-77
2021/09/30 07:50:57;;;;;;;5.05;1.23;;;;;;;11.33;68.00;101149.00;1087633;54;20030;-78
2021/09/30 07:52:02;;;;;;;3.83;1.20;;;;;;;11.34;68.05;101146.19;1087575;54;20035;-78
2021/09/30 07:53:06;;;;;;;4.80;1.38;;;;;;;11.44;67.69;101140.97;1087602;54;20053;-78
2021/09/30 07:54:08;;;;;;;7.05;1.65;;;;;;;11.36;67.96;101144.25;1087643;54;20038;-76
2021/09/30 07:55:15;;;;;;;3.60;1.02;;;;;;;11.54;67.62;101141.06;1087464;54;20054;-77
2021/09/30 07:56:20;;;;;;;8.30;1.30;;;;;;;11.57;67.75;101146.16;1087515;54;20034;-77
2021/09/30 07:57:24;;;;;;;9.25;1.40;;;;;;;11.61;67.87;101142.28;1086656;54;20038;-79
2021/09/30 07:58:25;;;;;;;5.18;1.23;;;;;;;11.64;67.29;101139.34;1087578;54;20038;-80
2021/09/30 07:59:38;;;;;;;6.72;2.08;;;;;;;11.68;66.84;101139.94;1087299;54;20035;-79
2021/09/30 08:00:43;;;;;;;4.18;1.05;;;;;;;11.96;66.55;101140.34;1086898;54;20027;-79
2021/09/30 08:01:45;;;;;;;4.95;1.20;;;;;;;11.85;66.83;101138.56;1090539;39;20488;-79
2021/09/30 08:02:55;;;;;;;7.38;1.60;;;;;;;11.78;66.63;101135.53;1087400;54;20126;-80
2021/09/30 08:03:58;;;;;;;5.82;1.67;;;;;;;11.88;66.37;101132.94;1087879;54;20056;-77
2021/09/30 08:05:02;;;;;;;6.63;1.50;;;;;;;12.06;65.99;101138.63;1087416;54;20030;-77
2021/09/30 08:06:04;;;;;;;6.28;1.40;;;;;;;12.11;65.97;101139.13;1086558;54;20042;-77
2021/09/30 08:07:08;;;;;;;4.32;1.23;;;;;;;12.30;65.65;101140.25;1086910;54;20035;-79
2021/09/30 08:08:10;;;;;;;5.43;1.80;;;;;;;12.66;64.80;101131.88;1087008;54;20046;-79
2021/09/30 08:09:14;;;;;;;5.05;1.10;;;;;;;12.60;64.29;101133.25;1086293;54;20131;-78
2021/09/30 08:21:23;;;;;;;3.13;1.20;;;;;;;13.55;61.79;101139.38;1086506;54;20026;-80
2021/09/30 08:22:27;;;;;;;4.05;1.40;;;;;;;13.72;61.38;101135.13;1086084;54;20038;-78
2021/09/30 08:23:29;;;;;;;5.25;1.70;;;;;;;13.49;61.49;101130.00;1086329;54;20643;-79
2021/09/30 08:24:33;;;;;;;3.42;1.42;;;;;;;13.91;61.19;101130.78;1087608;39;20759;-79
2021/09/30 08:25:34;;;;;;;4.22;1.42;;;;;;;14.15;60.34;101125.84;1086707;54;20161;-78
2021/09/30 08:26:38;;;;;;;6.05;1.20;;;;;;;14.42;59.98;101121.56;1086480;54;20065;-82
2021/09/30 08:27:43;;;;;;;2.85;1.05;;;;;;;14.36;59.53;101130.19;1086516;46;20065;-79
2021/09/30 08:28:47;;;;;;;4.88;1.17;;;;;;;14.55;59.39;101132.03;1086678;46;20050;-79
2021/09/30 08:29:52;;;;;;;4.43;1.33;;;;;;;14.13;59.54;101127.81;1086163;54;20038;-80
2021/09/30 08:31:02;;;;;;;5.22;1.40;;;;;;;14.15;59.38;101120.47;1086800;54;20030;-81
2021/09/30 08:32:06;;;;;;;4.97;1.45;;;;;;;13.92;60.41;101130.66;1087130;39;20437;-80
2021/09/30 08:33:12;;;;;;;7.57;1.50;;;;;;;13.91;60.23;101128.09;1087193;54;20050;-79
2021/09/30 08:34:14;;;;;;;4.97;1.55;;;;;;;13.83;60.58;101132.31;1087248;54;20057;-81
2021/09/30 08:35:18;;;;;;;5.43;1.40;;;;;;;13.87;60.27;101128.38;1087520;54;20027;-79
2021/09/30 08:36:25;;;;;;;5.63;1.20;;;;;;;14.31;59.39;101122.56;1086963;54;20027;-80
2021/09/30 08:37:27;;;;;;;4.38;1.20;;;;;;;14.66;58.72;101112.16;1086309;54;20038;-78
2021/09/30 08:38:32;;;;;;;6.15;2.03;;;;;;;14.94;57.69;101117.63;1086252;54;20549;-79
2021/09/30 08:39:36;;;;;;;4.18;1.55;;;;;;;14.63;57.88;101112.47;1086180;54;20069;-79
2021/09/30 08:40:42;;;;;;;6.72;1.30;;;;;;;14.38;58.44;101114.78;1086955;47;20069;-80
2021/09/30 08:41:47;;;;;;;6.60;1.55;;;;;;;14.48;58.72;101121.00;1087276;54;20106;-80
2021/09/30 08:42:56;;;;;;;6.75;1.40;;;;;;;14.30;58.78;101115.50;1086935;54;20038;-80
2021/09/30 08:43:57;;;;;;;5.05;1.50;;;;;;;14.49;58.88;101109.22;1086490;54;20042;-80
2021/09/30 08:45:01;;;;;;;5.90;1.38;;;;;;;14.45;58.79;101106.97;1087051;54;20070;-79
2021/09/30 08:46:06;;;;;;;7.40;2.38;;;;;;;14.14;58.94;101108.00;1087157;54;20708;-79
2021/09/30 08:47:09;;;;;;;10.27;1.70;;;;;;;14.06;59.12;101109.69;1087502;54;20054;-80